MSC Livorno — DIGY2 — position and weather

sailwx.info

Track history (hours):
 
Tides and Currents Weather Stations Pressure Air Temp Water Temp Dewpoint Dewpoint Depression Visibility Wind Speed Wind Dir Waves Ship Positions

MSC Livorno

Last reported at 2017-Oct-17 12:28 UTC. Time now 2017-Oct-17 12:58 UTC.
Position N 22°19' E 114°36'.

Length 366 m; draft 13.3 m.

Type: Ship (hazmat cat A). MMSI: 218441000.

Date/timePositionNaut miles runAvg speedWind from/ knotsBaromVisibWave heightAir tempDewpointWater temp
2017-Oct-17 12:28N 22°19' E 114°36'0 0.1
2017-Oct-17 11:58N 22°19' E 114°36'0 0.1
2017-Oct-17 11:25N 22°19' E 114°36'0 0.0
2017-Oct-17 10:58N 22°19' E 114°36'0 0.1
2017-Oct-17 10:28N 22°19' E 114°36'0 0.0
2017-Oct-17 09:58N 22°19' E 114°36'0 0.0
2017-Oct-17 09:28N 22°19' E 114°36'0 0.0
2017-Oct-17 08:58N 22°19' E 114°36'0 0.0
2017-Oct-17 08:28N 22°19' E 114°36'0 0.0
2017-Oct-17 07:58N 22°19' E 114°36'0 0.3
2017-Oct-17 07:28N 22°19' E 114°36'1 1.2
2017-Oct-17 06:59N 22°19' E 114°36'0 0.2
2017-Oct-17 06:30N 22°18' E 114°36'3 6.1
2017-Oct-17 06:00N 22°15' E 114°37'3 6.7
2017-Oct-17 05:30N 22°13' E 114°35'4 7.6
2017-Oct-17 05:00N 22°09' E 114°34'4 7.4
2017-Oct-17 04:30N 22°06' E 114°32'4 7.7
2017-Oct-17 04:00N 22°02' E 114°31'4 7.3
2017-Oct-17 03:30N 21°58' E 114°30'4 7.4
2017-Oct-17 03:00N 21°55' E 114°29'  
2017-Oct-12 12:39N 01°15' E 103°46'1 2.1
2017-Oct-12 12:18N 01°16' E 103°46'0 1.6
2017-Oct-12 12:00N 01°16' E 103°46'130129.3
2017-Oct-12 11:00N 02°48' E 105°18'12014.0 320 / 211009.0 5.4 26.525.830.2
2017-Oct-12 02:25N 01°14' E 104°02'613.3
2017-Oct-12 02:00N 01°13' E 103°57'612.2
2017-Oct-12 01:30N 01°11' E 103°51'3 5.4
2017-Oct-12 01:00N 01°12' E 103°49'4 7.7
2017-Oct-12 00:30N 01°15' E 103°46'1 2.7
2017-Oct-12 00:01N 01°16' E 103°46'0 0.1
2017-Oct-11 23:30N 01°16' E 103°46'0 0.0
2017-Oct-11 22:59N 01°16' E 103°46'0 0.0
2017-Oct-11 22:29N 01°16' E 103°46'0 0.0
2017-Oct-11 21:59N 01°16' E 103°46'0 0.0
2017-Oct-11 21:29N 01°16' E 103°46'0 0.0
2017-Oct-11 20:59N 01°16' E 103°46'0 0.0
2017-Oct-11 20:29N 01°16' E 103°46'0 0.0
2017-Oct-11 19:59N 01°16' E 103°46'0 0.0
2017-Oct-11 19:29N 01°16' E 103°46'0 0.0
2017-Oct-11 18:53N 01°16' E 103°46'0 0.0
2017-Oct-11 18:23N 01°16' E 103°46'0 0.0
2017-Oct-11 17:59N 01°16' E 103°46'0 0.0
2017-Oct-11 17:29N 01°16' E 103°46'0 0.0
2017-Oct-11 16:56N 01°16' E 103°46'16 1.0
2017-Oct-11 00:00N 01°11' E 103°30'2 4.3
2017-Oct-10 23:30N 01°11' E 103°28'2 3.4
2017-Oct-10 22:59N 01°11' E 103°27'3 6.8
2017-Oct-10 22:30N 01°12' E 103°24'916.2
2017-Oct-10 21:58N 01°18' E 103°17'18618.6
2017-Oct-10 12:00N 03°00' E 100°42'41017.1 050 / 101006.210.8 27.525.530.4
2017-Oct-09 12:00N 05°54' E 094°30'37020.6 260 / 151007.210.8 26.525.129.4
2017-Oct-08 18:00N 05°48' E 088°18'12520.9 230 / 121010.0 5.4 26.024.629.0
2017-Oct-08 12:00N 05°48' E 086°12'   210 / 141007.0 5.4 27.025.829.3
Track history (hours):
 
Tides and Currents Weather Stations Pressure Air Temp Water Temp Dewpoint Dewpoint Depression Visibility Wind Speed Wind Dir Waves Ship Positions

MSC Livorno

Last reported at 2017-Oct-17 12:28 UTC. Time now 2017-Oct-17 12:58 UTC.
Position N 22°19' E 114°36'.

Length 366 m; draft 13.3 m.

Type: Ship (hazmat cat A). MMSI: 218441000.

Date/timePositionNaut miles runAvg speedWind from/ knotsBaromVisibWave heightAir tempDewpointWater temp
2017-Oct-17 12:28N 22°19' E 114°36'0 0.1
2017-Oct-17 11:58N 22°19' E 114°36'0 0.1
2017-Oct-17 11:25N 22°19' E 114°36'0 0.0
2017-Oct-17 10:58N 22°19' E 114°36'0 0.1
2017-Oct-17 10:28N 22°19' E 114°36'0 0.0
2017-Oct-17 09:58N 22°19' E 114°36'0 0.0
2017-Oct-17 09:28N 22°19' E 114°36'0 0.0
2017-Oct-17 08:58N 22°19' E 114°36'0 0.0
2017-Oct-17 08:28N 22°19' E 114°36'0 0.0
2017-Oct-17 07:58N 22°19' E 114°36'0 0.3
2017-Oct-17 07:28N 22°19' E 114°36'1 1.2
2017-Oct-17 06:59N 22°19' E 114°36'0 0.2
2017-Oct-17 06:30N 22°18' E 114°36'3 6.1
2017-Oct-17 06:00N 22°15' E 114°37'3 6.7
2017-Oct-17 05:30N 22°13' E 114°35'4 7.6
2017-Oct-17 05:00N 22°09' E 114°34'4 7.4
2017-Oct-17 04:30N 22°06' E 114°32'4 7.7
2017-Oct-17 04:00N 22°02' E 114°31'4 7.3
2017-Oct-17 03:30N 21°58' E 114°30'4 7.4
2017-Oct-17 03:00N 21°55' E 114°29'  
2017-Oct-12 12:39N 01°15' E 103°46'1 2.1
2017-Oct-12 12:18N 01°16' E 103°46'0 1.6
2017-Oct-12 12:00N 01°16' E 103°46'130129.3
2017-Oct-12 11:00N 02°48' E 105°18'12014.0 320 / 211009.0 5.4 26.525.830.2
2017-Oct-12 02:25N 01°14' E 104°02'613.3
2017-Oct-12 02:00N 01°13' E 103°57'612.2
2017-Oct-12 01:30N 01°11' E 103°51'3 5.4
2017-Oct-12 01:00N 01°12' E 103°49'4 7.7
2017-Oct-12 00:30N 01°15' E 103°46'1 2.7
2017-Oct-12 00:01N 01°16' E 103°46'0 0.1
2017-Oct-11 23:30N 01°16' E 103°46'0 0.0
2017-Oct-11 22:59N 01°16' E 103°46'0 0.0
2017-Oct-11 22:29N 01°16' E 103°46'0 0.0
2017-Oct-11 21:59N 01°16' E 103°46'0 0.0
2017-Oct-11 21:29N 01°16' E 103°46'0 0.0
2017-Oct-11 20:59N 01°16' E 103°46'0 0.0
2017-Oct-11 20:29N 01°16' E 103°46'0 0.0
2017-Oct-11 19:59N 01°16' E 103°46'0 0.0
2017-Oct-11 19:29N 01°16' E 103°46'0 0.0
2017-Oct-11 18:53N 01°16' E 103°46'0 0.0
2017-Oct-11 18:23N 01°16' E 103°46'0 0.0
2017-Oct-11 17:59N 01°16' E 103°46'0 0.0
2017-Oct-11 17:29N 01°16' E 103°46'0 0.0
2017-Oct-11 16:56N 01°16' E 103°46'16 1.0
2017-Oct-11 00:00N 01°11' E 103°30'2 4.3
2017-Oct-10 23:30N 01°11' E 103°28'2 3.4
2017-Oct-10 22:59N 01°11' E 103°27'3 6.8
2017-Oct-10 22:30N 01°12' E 103°24'916.2
2017-Oct-10 21:58N 01°18' E 103°17'18618.6
2017-Oct-10 12:00N 03°00' E 100°42'41017.1 050 / 101006.210.8 27.525.530.4
2017-Oct-09 12:00N 05°54' E 094°30'37020.6 260 / 151007.210.8 26.525.129.4
2017-Oct-08 18:00N 05°48' E 088°18'12520.9 230 / 121010.0 5.4 26.024.629.0
2017-Oct-08 12:00N 05°48' E 086°12'   210 / 141007.0 5.4 27.025.829.3

Dump ship's entire track history